Time;durP1;ratioP1;P1;durP2;ratioP2;P2;SDS_P1;SDS_P2;PMS_P1;PMS_P2;Temp;Humidity;BMP_temperature;BMP_pressure;BME280_temperature;BME280_humidity;BME280_pressure;Samples;Min_cycle;Max_cycle;Signal;HPM_P1;HPM_P2
2021/12/20 00:00:09;;;;;;;15.43;14.03;;;;;;;6.71;81.92;99545.78;4998444;28;102761;-66
2021/12/20 00:02:39;;;;;;;18.02;16.33;;;;;;;6.68;81.65;99540.66;4994080;28;103418;-66
2021/12/20 00:05:09;;;;;;;20.80;18.77;;;;;;;6.45;82.17;99538.16;4991975;28;103467;-65
2021/12/20 00:07:39;;;;;;;19.92;18.13;;;;;;;6.53;82.41;99542.16;5005943;28;102856;-66
2021/12/20 00:10:10;;;;;;;20.02;18.15;;;;;;;6.52;81.82;99537.81;4999040;28;103871;-66
2021/12/20 00:12:38;;;;;;;18.75;17.02;;;;;;;6.56;82.61;99531.53;5006048;28;103380;-66
2021/12/20 00:15:08;;;;;;;20.55;18.65;;;;;;;6.43;82.46;99534.75;4994516;28;103222;-66
2021/12/20 00:17:36;;;;;;;17.50;15.90;;;;;;;6.60;82.64;99526.97;4996538;28;102906;-66
2021/12/20 00:20:06;;;;;;;22.10;19.92;;;;;;;6.24;81.91;99529.41;5004490;27;102676;-66
2021/12/20 00:22:34;;;;;;;18.58;16.88;;;;;;;6.35;83.49;99530.66;5001786;28;103374;-66
2021/12/20 00:25:02;;;;;;;18.65;16.95;;;;;;;6.54;82.82;99522.03;5005205;28;103403;-66
2021/12/20 00:27:30;;;;;;;21.48;19.35;;;;;;;6.21;83.46;99514.63;5001144;28;102629;-66
2021/12/20 00:29:58;;;;;;;22.38;20.27;;;;;;;5.95;85.08;99512.22;4996837;28;102835;-66
2021/12/20 00:32:27;;;;;;;20.75;18.75;;;;;;;6.25;83.51;99503.13;4997357;28;104449;-66
2021/12/20 00:34:55;;;;;;;19.10;17.37;;;;;;;6.49;82.60;99497.72;4996540;28;103366;-66
2021/12/20 00:40:23;;;;;;;21.10;19.10;;;;;;;6.24;83.45;99511.03;4913324;28;103067;-66
2021/12/20 00:42:53;;;;;;;20.63;18.73;;;;;;;6.06;84.30;99520.53;4998099;28;103330;-66
2021/12/20 00:45:22;;;;;;;19.63;17.75;;;;;;;6.27;84.05;99522.25;4998649;27;103589;-66
2021/12/20 00:47:51;;;;;;;16.57;15.07;;;;;;;6.53;82.93;99509.81;5003391;28;102843;-66
2021/12/20 00:50:25;;;;;;;17.52;15.90;;;;;;;6.57;82.47;99508.75;5011119;28;102968;-66
2021/12/20 00:52:54;;;;;;;17.85;16.15;;;;;;;6.66;81.92;99510.97;5003122;28;104772;-66
2021/12/20 00:55:26;;;;;;;19.88;17.98;;;;;;;6.63;81.51;99509.31;4995685;28;103662;-66
2021/12/20 00:57:57;;;;;;;17.77;16.17;;;;;;;6.63;82.02;99505.84;4994337;28;103173;-66
2021/12/20 01:00:28;;;;;;;17.60;15.93;;;;;;;6.62;81.61;99510.28;4996459;28;103022;-66
2021/12/20 01:02:59;;;;;;;21.58;19.48;;;;;;;6.27;82.34;99522.25;5002381;28;103996;-66
2021/12/20 01:05:28;;;;;;;21.13;19.20;;;;;;;6.28;83.00;99510.84;5000984;28;104173;-66
2021/12/20 01:07:59;;;;;;;17.87;16.27;;;;;;;6.48;82.63;99514.41;5005860;28;102665;-66
2021/12/20 01:10:29;;;;;;;15.60;14.20;;;;;;;6.60;82.30;99498.97;4996256;28;102772;-66
2021/12/20 01:13:00;;;;;;;20.42;18.52;;;;;;;6.58;81.37;99502.56;5027607;27;102851;-66
2021/12/20 01:15:32;;;;;;;16.48;14.98;;;;;;;6.64;82.02;99502.31;4996709;28;103198;-66
2021/12/20 01:18:03;;;;;;;19.67;17.83;;;;;;;6.56;81.60;99494.78;5008130;28;102775;-66
2021/12/20 01:20:33;;;;;;;16.05;14.55;;;;;;;6.60;81.98;99498.09;5001563;28;102707;-66
2021/12/20 01:23:01;;;;;;;21.40;19.40;;;;;;;6.47;81.56;99499.56;4996622;28;103215;-66
2021/12/20 01:25:29;;;;;;;20.60;18.60;;;;;;;6.10;82.54;99506.38;4997383;28;103225;-66
2021/12/20 01:27:57;;;;;;;19.83;17.92;;;;;;;6.06;83.93;99504.81;4997356;28;102934;-66
2021/12/20 01:30:28;;;;;;;20.83;18.83;;;;;;;6.19;82.76;99506.00;5007070;28;102884;-66
2021/12/20 01:32:56;;;;;;;17.53;15.97;;;;;;;6.28;82.48;99508.22;5005668;28;103803;-66
2021/12/20 01:35:28;;;;;;;21.40;19.40;;;;;;;5.84;84.51;99512.63;5000908;28;103068;-66
2021/12/20 01:37:57;;;;;;;19.85;18.02;;;;;;;6.03;83.80;99507.56;5000515;28;103065;-66
2021/12/20 01:40:26;;;;;;;19.45;17.65;;;;;;;6.19;82.99;99492.00;5009908;28;102807;-66
2021/12/20 01:42:57;;;;;;;18.65;16.95;;;;;;;6.23;82.42;99497.06;5004604;28;103244;-66
2021/12/20 01:45:27;;;;;;;23.20;20.95;;;;;;;5.43;85.43;99500.31;5008715;28;103317;-66
2021/12/20 01:48:03;;;;;;;24.40;21.90;;;;;;;5.05;88.08;99496.53;5011692;28;102634;-66
2021/12/20 01:53:26;;;;;;;25.80;23.23;;;;;;;4.95;90.13;99489.94;4980051;28;103348;-66
2021/12/20 01:55:57;;;;;;;24.80;22.40;;;;;;;5.04;89.95;99499.22;5004583;28;103215;-66
2021/12/20 01:58:27;;;;;;;16.65;15.15;;;;;;;5.64;87.51;99488.16;4999800;28;102789;-66
2021/12/20 02:04:01;;;;;;;17.85;16.25;;;;;;;6.11;85.47;99483.63;5109671;27;102538;-65
2021/12/20 02:06:34;;;;;;;22.83;20.55;;;;;;;5.86;85.23;99482.91;5088273;27;104160;-65
2021/12/20 02:09:08;;;;;;;21.08;19.05;;;;;;;5.91;85.50;99481.81;5067536;27;104389;-65
2021/12/20 02:11:38;;;;;;;17.85;16.20;;;;;;;6.07;84.97;99479.41;5062901;27;103159;-65
2021/12/20 02:14:08;;;;;;;22.90;20.70;;;;;;;5.87;83.78;99482.84;5089343;27;102820;-65
2021/12/20 02:16:38;;;;;;;17.83;16.13;;;;;;;6.04;84.66;99485.63;5092313;27;103528;-65
2021/12/20 02:19:10;;;;;;;16.83;15.32;;;;;;;6.18;84.42;99485.91;5064456;27;104218;-65
2021/12/20 02:21:41;;;;;;;22.10;20.02;;;;;;;6.06;83.66;99483.81;5093742;27;103273;-65
2021/12/20 02:24:09;;;;;;;23.00;20.77;;;;;;;5.92;84.03;99491.41;5094649;27;102607;-65
2021/12/20 02:26:38;;;;;;;22.60;20.50;;;;;;;5.83;85.22;99481.25;5096787;27;102692;-65
2021/12/20 02:29:08;;;;;;;22.75;20.55;;;;;;;5.91;84.99;99484.44;5065627;27;103446;-65
2021/12/20 02:37:20;;;;;;;19.02;17.23;;;;;;;5.95;85.26;99470.25;5084204;27;102627;-65
2021/12/20 02:39:48;;;;;;;22.17;19.95;;;;;;;5.91;84.42;99473.09;5093610;27;102983;-66
2021/12/20 02:42:20;;;;;;;27.38;24.48;;;;;;;4.68;90.15;99478.75;5085964;27;103162;-66
2021/12/20 02:45:06;;;;;;;25.50;22.77;;;;;;;4.71;90.98;99475.16;5080778;27;102636;-66
2021/12/20 02:47:37;;;;;;;28.10;24.20;;;;;;;4.53;92.31;99476.66;5068899;27;102905;-66
2021/12/20 02:50:06;;;;;;;26.52;22.88;;;;;;;4.42;93.02;99477.94;5066269;27;103427;-66
2021/12/20 02:52:35;;;;;;;27.90;24.67;;;;;;;4.05;94.21;99471.38;5090299;27;103237;-66
2021/12/20 02:55:03;;;;;;;28.83;24.73;;;;;;;3.88;95.93;99476.31;5089605;27;102772;-65
2021/12/20 02:57:34;;;;;;;26.75;23.85;;;;;;;4.10;95.92;99472.06;5086870;27;102723;-66
2021/12/20 03:00:05;;;;;;;24.95;22.27;;;;;;;4.25;95.69;99472.44;5087141;27;102637;-66
2021/12/20 03:02:33;;;;;;;24.55;22.00;;;;;;;4.50;94.46;99473.28;5060098;27;103179;-65
2021/12/20 03:05:02;;;;;;;22.88;20.50;;;;;;;4.79;92.39;99465.25;5090887;27;102887;-65
2021/12/20 03:07:38;;;;;;;24.52;21.92;;;;;;;4.64;92.11;99471.03;5085141;27;102843;-65
2021/12/20 03:10:09;;;;;;;24.23;21.60;;;;;;;4.47;94.28;99470.78;5067308;27;104515;-65
2021/12/20 03:12:38;;;;;;;28.15;23.70;;;;;;;4.46;94.29;99479.56;5081224;27;103409;-65
2021/12/20 03:15:12;;;;;;;26.90;23.03;;;;;;;4.38;95.35;99477.19;5075888;27;102775;-65
2021/12/20 03:17:40;;;;;;;22.60;20.17;;;;;;;4.98;93.71;99468.03;5055402;27;103009;-65
2021/12/20 03:20:09;;;;;;;21.70;19.50;;;;;;;5.31;91.74;99468.50;5080268;27;103278;-65
2021/12/20 03:22:39;;;;;;;23.58;21.02;;;;;;;5.20;91.31;99468.91;5057695;27;104138;-65
2021/12/20 03:25:09;;;;;;;24.92;22.27;;;;;;;4.85;92.65;99470.25;5076497;27;102582;-65
2021/12/20 03:27:37;;;;;;;26.63;23.23;;;;;;;4.83;91.82;99477.28;5074482;27;104125;-65
2021/12/20 03:30:09;;;;;;;28.90;24.67;;;;;;;4.28;95.27;99480.19;5049140;27;104116;-66
2021/12/20 03:32:37;;;;;;;23.67;21.00;;;;;;;4.77;96.23;99485.41;5055253;27;103259;-65
2021/12/20 03:35:06;;;;;;;18.45;16.55;;;;;;;5.33;93.25;99471.94;5072687;27;102652;-65
2021/12/20 03:37:34;;;;;;;18.77;16.87;;;;;;;5.59;91.36;99472.59;5079377;27;103189;-65
2021/12/20 03:40:03;;;;;;;20.30;18.23;;;;;;;5.70;90.33;99474.78;5070763;27;103218;-65
2021/12/20 03:42:32;;;;;;;19.00;17.08;;;;;;;5.79;89.25;99469.16;5079855;27;103063;-65
2021/12/20 03:45:00;;;;;;;24.80;22.07;;;;;;;5.33;89.49;99464.06;5055583;27;102668;-66
2021/12/20 03:47:29;;;;;;;18.87;17.00;;;;;;;5.63;90.04;99462.84;5078497;27;102891;-65
2021/12/20 03:49:57;;;;;;;19.47;17.57;;;;;;;5.80;88.84;99463.88;5071905;27;104145;-65
2021/12/20 03:52:25;;;;;;;20.30;18.30;;;;;;;5.86;87.94;99470.66;5054238;27;103341;-66
2021/12/20 03:54:53;;;;;;;17.85;16.05;;;;;;;5.92;87.45;99462.56;5059104;27;102853;-65
2021/12/20 03:57:21;;;;;;;20.33;18.30;;;;;;;6.01;87.05;99464.75;5054688;27;103975;-65
2021/12/20 03:59:54;;;;;;;21.40;19.10;;;;;;;6.00;86.39;99467.47;5071578;27;103232;-65
2021/12/20 04:02:23;;;;;;;19.25;17.35;;;;;;;5.92;86.52;99467.78;5066709;27;103111;-64
2021/12/20 04:04:51;;;;;;;17.45;15.75;;;;;;;5.99;86.67;99466.59;5069720;27;102670;-64
2021/12/20 04:07:18;;;;;;;17.98;16.27;;;;;;;6.05;86.37;99461.13;5071790;27;102657;-65
2021/12/20 04:09:46;;;;;;;16.38;14.77;;;;;;;6.12;86.28;99467.78;5072060;27;103343;-65
2021/12/20 04:12:15;;;;;;;15.80;14.30;;;;;;;6.16;86.04;99458.88;5076942;27;103327;-64
2021/12/20 04:14:43;;;;;;;18.90;16.95;;;;;;;6.18;85.46;99457.03;5068915;27;102709;-65
2021/12/20 04:17:12;;;;;;;19.25;17.30;;;;;;;6.00;85.97;99468.31;5068522;27;102712;-65
2021/12/20 04:19:40;;;;;;;19.05;17.15;;;;;;;6.14;86.19;99460.72;5078521;27;103341;-65
2021/12/20 04:22:09;;;;;;;19.95;17.95;;;;;;;6.19;86.13;99458.75;5059602;27;103398;-65
2021/12/20 04:24:39;;;;;;;19.77;17.80;;;;;;;6.19;86.62;99464.00;5074726;27;102723;-65
2021/12/20 04:27:07;;;;;;;15.27;13.87;;;;;;;6.24;85.99;99467.28;5069431;27;103885;-65
2021/12/20 04:29:35;;;;;;;15.23;13.75;;;;;;;6.30;85.45;99468.78;5080281;27;103216;-65
2021/12/20 04:32:03;;;;;;;15.73;14.23;;;;;;;6.35;85.46;99467.66;5049779;27;103196;-65
2021/12/20 04:34:32;;;;;;;18.50;16.70;;;;;;;6.27;84.87;99466.28;5074920;27;102826;-65
2021/12/20 04:37:02;;;;;;;17.35;15.65;;;;;;;6.23;85.42;99465.56;5074396;27;103187;-65
2021/12/20 04:39:31;;;;;;;18.10;16.40;;;;;;;6.31;85.45;99467.88;5060928;27;103750;-65
2021/12/20 04:42:00;;;;;;;22.90;20.50;;;;;;;5.85;85.33;99463.69;5070293;27;103296;-65
2021/12/20 04:44:28;;;;;;;23.52;21.02;;;;;;;5.64;88.37;99464.56;5071913;27;102743;-65
2021/12/20 04:46:56;;;;;;;20.50;18.48;;;;;;;5.89;87.85;99465.28;5077255;27;104408;-65
2021/12/20 04:49:24;;;;;;;15.98;14.43;;;;;;;6.09;87.00;99467.91;5077144;27;103189;-65
2021/12/20 04:51:55;;;;;;;23.23;20.77;;;;;;;5.60;86.77;99483.94;5070658;27;103252;-65
2021/12/20 04:54:23;;;;;;;21.40;19.23;;;;;;;5.73;88.57;99483.38;5068126;27;102577;-65
2021/12/20 04:56:51;;;;;;;20.55;18.42;;;;;;;5.81;88.24;99475.22;5056576;27;104262;-65
2021/12/20 04:59:22;;;;;;;23.15;20.67;;;;;;;5.37;89.69;99471.72;5056746;27;103721;-65
2021/12/20 05:01:50;;;;;;;20.33;18.27;;;;;;;5.71;89.11;99471.25;5069771;27;103210;-65
2021/12/20 05:04:18;;;;;;;20.33;18.33;;;;;;;5.92;88.01;99475.66;5072356;27;102620;-65
2021/12/20 05:06:48;;;;;;;17.73;15.98;;;;;;;6.01;87.79;99475.25;5068119;27;103900;-65
2021/12/20 05:09:18;;;;;;;22.35;20.08;;;;;;;5.97;86.50;99472.84;5068307;27;104536;-65
2021/12/20 05:11:50;;;;;;;23.42;21.02;;;;;;;5.41;89.29;99477.72;5071073;27;103563;-65
2021/12/20 05:14:18;;;;;;;21.40;19.27;;;;;;;5.75;88.53;99472.84;5050828;27;103731;-65
2021/12/20 05:16:46;;;;;;;17.90;16.13;;;;;;;5.93;87.99;99466.84;5066093;27;103105;-64
2021/12/20 05:19:14;;;;;;;20.70;18.50;;;;;;;5.84;88.35;99460.19;5066997;27;103237;-65
2021/12/20 05:21:42;;;;;;;22.38;19.98;;;;;;;5.86;87.07;99470.66;5077653;27;103220;-65
2021/12/20 05:24:10;;;;;;;21.17;19.00;;;;;;;5.80;87.78;99470.88;5072427;27;102884;-65
2021/12/20 05:26:39;;;;;;;26.83;23.77;;;;;;;4.78;90.83;99487.09;5073943;27;102628;-65
2021/12/20 05:29:08;;;;;;;22.20;19.88;;;;;;;5.04;92.52;99481.75;5071953;27;104180;-65
2021/12/20 05:31:36;;;;;;;20.80;18.70;;;;;;;5.51;90.38;99479.03;5052798;27;103108;-65
2021/12/20 05:34:06;;;;;;;19.42;17.48;;;;;;;5.74;89.85;99479.84;5043830;27;102702;-65
2021/12/20 05:36:34;;;;;;;29.33;24.77;;;;;;;4.74;91.81;99482.91;5043712;27;104352;-66
2021/12/20 05:39:02;;;;;;;25.95;22.88;;;;;;;4.92;92.38;99479.59;5041022;27;103217;-66
2021/12/20 05:41:32;;;;;;;31.33;25.37;;;;;;;4.46;93.88;99484.78;5031342;27;103193;-66
2021/12/20 05:44:01;;;;;;;24.95;22.25;;;;;;;4.61;96.39;99484.22;5043044;27;102955;-66
2021/12/20 05:46:30;;;;;;;19.70;17.70;;;;;;;5.35;93.61;99483.19;5047461;27;104196;-66
2021/12/20 05:48:58;;;;;;;22.30;19.95;;;;;;;5.51;91.28;99492.16;5045698;27;103280;-68
2021/12/20 05:51:27;;;;;;;21.63;19.27;;;;;;;5.57;89.27;99487.53;5043954;27;103357;-67
2021/12/20 05:53:55;;;;;;;19.88;17.88;;;;;;;5.68;89.29;99490.59;5045907;27;103080;-66
2021/12/20 05:56:23;;;;;;;20.23;18.20;;;;;;;5.75;88.13;99499.88;5049339;27;104207;-66
2021/12/20 05:58:52;;;;;;;21.85;19.65;;;;;;;5.62;88.03;99489.97;5025527;27;103266;-66
2021/12/20 06:01:22;;;;;;;20.98;18.88;;;;;;;5.61;88.55;99496.13;5038501;27;103205;-66
2021/12/20 06:03:50;;;;;;;21.10;19.00;;;;;;;5.44;88.85;99506.44;5026253;27;103099;-66
2021/12/20 06:06:18;;;;;;;23.58;21.08;;;;;;;5.32;89.58;99499.03;5044865;27;104073;-66
2021/12/20 06:12:18;;;;;;;25.40;22.40;;;;;;;5.11;88.89;99501.53;5024850;27;103606;-66
2021/12/20 06:14:46;;;;;;;21.88;19.60;;;;;;;5.06;91.62;99502.63;5073799;27;102667;-66
2021/12/20 06:17:17;;;;;;;19.00;17.03;;;;;;;5.57;89.60;99490.16;5044694;27;102907;-66
2021/12/20 06:19:44;;;;;;;17.52;15.82;;;;;;;5.79;88.62;99484.91;5041114;27;104091;-66
2021/12/20 06:22:13;;;;;;;21.08;18.90;;;;;;;5.54;87.27;99494.66;5034239;27;103101;-65
2021/12/20 06:24:41;;;;;;;26.57;22.57;;;;;;;4.58;92.70;99500.91;5042963;27;102711;-65
2021/12/20 06:27:09;;;;;;;19.83;17.75;;;;;;;5.24;92.31;99487.09;5045618;27;104169;-66
2021/12/20 06:29:37;;;;;;;17.70;16.00;;;;;;;5.64;90.78;99493.41;5043970;27;104650;-66
2021/12/20 06:32:06;;;;;;;21.70;19.40;;;;;;;5.48;89.28;99494.88;5048854;27;103194;-66
2021/12/20 06:34:35;;;;;;;19.08;17.17;;;;;;;5.62;89.16;99497.81;5027555;27;102736;-66
2021/12/20 06:37:04;;;;;;;27.50;22.88;;;;;;;4.84;90.48;99497.34;5034925;27;103159;-66
2021/12/20 06:39:33;;;;;;;26.13;23.02;;;;;;;4.61;93.58;99494.69;5036307;27;103292;-65
2021/12/20 06:42:02;;;;;;;19.83;17.73;;;;;;;5.28;91.90;99496.53;5046134;27;103350;-65
2021/12/20 06:44:30;;;;;;;23.15;20.65;;;;;;;5.26;90.56;99508.84;5049247;27;102676;-66
2021/12/20 06:46:58;;;;;;;20.37;18.33;;;;;;;5.15;91.66;99502.28;5043952;27;102906;-66
2021/12/20 06:49:26;;;;;;;20.52;18.42;;;;;;;5.35;90.65;99505.00;5041613;27;103232;-66
2021/12/20 06:51:59;;;;;;;27.58;22.80;;;;;;;4.79;91.55;99504.53;5043308;27;104005;-67
2021/12/20 06:54:27;;;;;;;25.23;21.60;;;;;;;4.54;94.53;99501.06;5042536;27;103266;-67
2021/12/20 06:56:56;;;;;;;21.42;19.20;;;;;;;5.14;92.92;99509.28;5048454;27;102968;-66
2021/12/20 06:59:25;;;;;;;24.65;21.88;;;;;;;4.66;93.39;99517.19;5055994;27;103394;-66
2021/12/20 07:01:55;;;;;;;21.58;19.27;;;;;;;4.90;93.84;99511.97;5034128;27;105562;-67
2021/12/20 07:04:23;;;;;;;22.30;19.92;;;;;;;5.02;92.93;99520.25;5064189;27;103155;-66
2021/12/20 07:06:52;;;;;;;22.85;20.35;;;;;;;4.87;92.45;99518.19;5073939;27;103695;-67
2021/12/20 07:09:22;;;;;;;17.98;16.08;;;;;;;5.32;91.59;99517.38;5074445;27;103261;-67
2021/12/20 07:11:50;;;;;;;23.35;20.83;;;;;;;5.07;89.77;99526.16;5078447;27;103012;-67
2021/12/20 07:14:19;;;;;;;19.20;17.33;;;;;;;5.24;90.91;99523.78;5072646;27;102560;-67
2021/12/20 07:16:47;;;;;;;17.80;16.00;;;;;;;5.56;89.45;99519.91;5076531;27;102749;-66
2021/12/20 07:19:15;;;;;;;23.63;20.13;;;;;;;5.00;89.02;99529.91;5072788;27;103398;-66
2021/12/20 07:21:43;;;;;;;20.98;18.67;;;;;;;4.86;92.45;99526.06;5068626;27;103204;-66
2021/12/20 07:24:10;;;;;;;20.63;18.40;;;;;;;5.07;91.55;99534.03;5073646;27;102783;-65
2021/12/20 07:26:41;;;;;;;19.70;17.70;;;;;;;5.23;90.50;99527.28;5080230;27;102767;-66
2021/12/20 07:29:09;;;;;;;25.27;20.85;;;;;;;4.64;91.68;99531.22;5079618;27;103237;-66
2021/12/20 07:31:37;;;;;;;25.80;21.00;;;;;;;4.47;94.13;99538.81;5072615;27;103185;-66
2021/12/20 07:34:10;;;;;;;26.02;21.05;;;;;;;4.54;95.33;99540.31;5068939;27;103594;-66
2021/12/20 07:36:38;;;;;;;21.70;19.38;;;;;;;4.77;92.97;99532.53;5073540;27;103183;-66
2021/12/20 07:39:06;;;;;;;21.83;19.50;;;;;;;4.98;92.40;99534.34;5075103;27;103975;-66
2021/12/20 07:41:53;;;;;;;20.13;17.92;;;;;;;5.31;91.60;99539.22;5071940;27;103174;-66
2021/12/20 07:44:21;;;;;;;25.35;22.33;;;;;;;4.71;91.95;99537.13;5070810;27;102912;-66
2021/12/20 07:46:49;;;;;;;20.65;18.45;;;;;;;4.96;92.62;99537.94;5068782;27;103895;-66
2021/12/20 07:49:17;;;;;;;20.43;18.33;;;;;;;5.26;91.49;99542.91;5067282;27;104091;-67
2021/12/20 07:51:46;;;;;;;19.98;17.98;;;;;;;5.18;91.07;99555.44;5079641;27;103428;-67
2021/12/20 07:54:13;;;;;;;20.02;17.92;;;;;;;5.47;90.91;99546.50;5077705;27;102682;-66
2021/12/20 07:56:41;;;;;;;23.35;19.98;;;;;;;5.23;90.65;99545.63;5071056;27;102640;-66
2021/12/20 07:59:11;;;;;;;20.27;18.10;;;;;;;5.38;90.71;99546.81;5059267;27;103214;-67
2021/12/20 08:01:39;;;;;;;16.77;15.07;;;;;;;5.75;90.15;99543.63;5067492;27;103181;-66
2021/12/20 08:04:07;;;;;;;21.60;18.95;;;;;;;5.73;89.17;99553.31;5079920;27;102674;-67
2021/12/20 08:06:36;;;;;;;20.80;18.60;;;;;;;5.36;91.31;99547.81;5077323;27;104108;-66
2021/12/20 08:09:05;;;;;;;25.55;22.55;;;;;;;4.63;93.98;99550.47;5080346;27;104044;-67
2021/12/20 08:11:34;;;;;;;23.65;20.73;;;;;;;4.64;94.91;99552.16;5049086;27;103271;-66
2021/12/20 08:14:02;;;;;;;19.15;17.15;;;;;;;5.10;94.74;99540.91;5075520;27;102746;-67
2021/12/20 08:16:33;;;;;;;16.00;14.40;;;;;;;5.69;92.12;99557.00;5047282;27;102806;-67
2021/12/20 08:19:01;;;;;;;23.00;20.58;;;;;;;5.58;89.92;99549.53;5080202;27;103913;-67
2021/12/20 08:21:29;;;;;;;22.73;20.27;;;;;;;5.32;91.25;99547.06;5075067;27;103211;-66
2021/12/20 08:23:57;;;;;;;23.02;20.02;;;;;;;5.52;90.64;99546.28;5070553;27;102626;-67
2021/12/20 08:26:27;;;;;;;23.55;20.15;;;;;;;5.54;89.62;99553.19;5054713;27;104168;-66
2021/12/20 08:28:58;;;;;;;18.60;16.60;;;;;;;5.77;90.63;99552.28;5077508;27;103994;-66
2021/12/20 08:31:26;;;;;;;21.33;19.13;;;;;;;5.90;89.62;99550.91;5073586;27;103399;-66
2021/12/20 08:33:55;;;;;;;18.25;16.40;;;;;;;6.20;89.05;99559.34;5068402;27;102688;-66
2021/12/20 08:36:24;;;;;;;17.88;15.93;;;;;;;6.35;88.02;99554.28;5068738;27;104587;-67
2021/12/20 08:38:53;;;;;;;18.77;16.77;;;;;;;6.47;87.28;99552.06;5078981;27;103274;-66
2021/12/20 08:41:21;;;;;;;21.47;19.23;;;;;;;6.30;86.77;99556.25;5068337;27;103260;-66
2021/12/20 08:43:49;;;;;;;23.30;20.30;;;;;;;5.97;87.40;99565.50;5076265;27;103054;-66
2021/12/20 08:46:19;;;;;;;21.42;19.27;;;;;;;6.17;87.56;99562.94;5055111;27;103071;-67
2021/12/20 08:48:48;;;;;;;20.90;18.58;;;;;;;6.32;86.59;99559.66;5058534;27;103973;-66
2021/12/20 08:51:17;;;;;;;21.05;18.83;;;;;;;6.44;85.28;99566.19;5065672;27;103240;-67
2021/12/20 08:53:45;;;;;;;21.20;19.10;;;;;;;6.21;87.46;99567.13;5063055;27;103017;-66
2021/12/20 08:56:16;;;;;;;23.03;20.27;;;;;;;6.37;86.26;99578.69;5070201;27;102996;-66
2021/12/20 08:58:44;;;;;;;21.00;18.80;;;;;;;6.51;86.12;99572.03;5053810;27;103229;-66
2021/12/20 09:01:13;;;;;;;22.77;20.35;;;;;;;6.38;85.18;99576.94;5053662;27;103469;-67
2021/12/20 09:03:41;;;;;;;25.47;21.20;;;;;;;5.95;87.43;99575.19;5070661;27;104043;-67
2021/12/20 09:06:09;;;;;;;25.77;22.38;;;;;;;5.99;86.78;99579.41;5051098;27;104062;-67
2021/12/20 09:08:40;;;;;;;28.77;24.42;;;;;;;5.11;90.81;99579.28;5050922;27;103218;-66
2021/12/20 09:11:08;;;;;;;25.70;22.30;;;;;;;5.42;91.04;99585.09;5060950;27;103854;-67
2021/12/20 09:13:36;;;;;;;20.80;18.70;;;;;;;6.13;89.67;99584.09;5070370;27;102960;-66
2021/12/20 09:16:04;;;;;;;22.42;20.02;;;;;;;6.46;87.31;99576.63;5078053;27;102750;-66
2021/12/20 09:18:32;;;;;;;23.80;21.30;;;;;;;6.36;86.37;99577.00;5066064;27;104159;-66
2021/12/20 09:21:00;;;;;;;17.30;15.60;;;;;;;6.75;86.39;99579.72;5067663;27;103666;-66
2021/12/20 09:23:31;;;;;;;21.88;19.58;;;;;;;6.57;85.33;99587.53;5057505;27;102693;-66
2021/12/20 09:26:01;;;;;;;21.75;19.52;;;;;;;6.76;85.91;99591.06;5074976;27;102828;-67
2021/12/20 09:28:32;;;;;;;18.93;16.97;;;;;;;6.96;84.85;99591.06;5077434;27;103233;-66
2021/12/20 09:31:01;;;;;;;19.13;17.27;;;;;;;7.06;84.33;99589.75;5055174;27;103196;-66
2021/12/20 09:33:29;;;;;;;20.55;18.45;;;;;;;7.15;83.61;99588.47;5075705;27;102592;-66
2021/12/20 09:35:57;;;;;;;21.42;19.15;;;;;;;7.24;83.40;99582.81;5069809;27;104481;-67
2021/12/20 09:38:30;;;;;;;23.10;20.27;;;;;;;6.85;83.69;99585.41;5077573;27;102986;-67
2021/12/20 09:41:17;;;;;;;25.77;22.58;;;;;;;5.83;89.29;99596.63;5072601;27;103450;-67
2021/12/20 09:43:51;;;;;;;26.23;22.83;;;;;;;5.69;92.21;99593.69;5072112;27;102840;-67
2021/12/20 09:46:21;;;;;;;25.10;22.40;;;;;;;5.76;91.24;99600.41;5072906;27;102831;-67
2021/12/20 09:48:50;;;;;;;20.77;18.63;;;;;;;6.20;91.09;99594.28;5076444;27;103154;-67
2021/12/20 09:51:19;;;;;;;25.27;22.13;;;;;;;5.87;90.25;99592.16;5069853;27;103252;-67
2021/12/20 09:53:47;;;;;;;28.85;24.63;;;;;;;5.32;92.55;99590.75;5069885;27;102856;-66
2021/12/20 09:56:23;;;;;;;20.65;18.45;;;;;;;6.32;91.11;99588.53;5075362;27;104370;-67
2021/12/20 09:58:53;;;;;;;23.10;20.63;;;;;;;6.73;87.75;99585.94;5075050;27;103403;-67
2021/12/20 10:01:23;;;;;;;26.85;23.40;;;;;;;6.04;88.13;99595.81;5070350;27;103199;-67
2021/12/20 10:03:53;;;;;;;24.25;21.70;;;;;;;6.23;90.66;99596.78;5073252;27;102613;-67
2021/12/20 10:06:21;;;;;;;28.35;25.25;;;;;;;5.73;89.71;99592.66;5079606;27;102916;-67
2021/12/20 10:08:51;;;;;;;27.20;24.23;;;;;;;5.81;90.75;99588.81;5058293;27;103444;-66
2021/12/20 10:11:23;;;;;;;28.02;24.60;;;;;;;6.10;88.52;99584.22;5052296;27;103053;-67
2021/12/20 10:14:01;;;;;;;31.45;26.75;;;;;;;5.52;90.00;99585.63;5076882;27;102563;-67
2021/12/20 10:16:30;;;;;;;31.17;27.07;;;;;;;5.17;92.89;99582.53;5068865;27;102775;-67
2021/12/20 10:19:00;;;;;;;30.10;25.95;;;;;;;5.74;90.13;99592.59;5078082;27;103221;-67
2021/12/20 10:21:39;;;;;;;30.58;26.45;;;;;;;5.63;91.93;99593.94;5073525;27;103300;-66
2021/12/20 10:24:08;;;;;;;31.75;27.25;;;;;;;5.28;93.30;99589.16;5078182;27;102605;-66
2021/12/20 10:26:42;;;;;;;30.10;26.27;;;;;;;5.61;92.64;99590.53;5075205;27;103026;-66
2021/12/20 10:29:19;;;;;;;32.38;26.75;;;;;;;5.64;90.35;99585.16;5076245;27;104037;-66
2021/12/20 10:31:47;;;;;;;30.83;26.97;;;;;;;5.52;91.08;99581.22;5073232;27;103218;-66
2021/12/20 10:34:31;;;;;;;27.77;24.67;;;;;;;6.28;88.88;99579.09;5053897;27;102982;-66
2021/12/20 10:37:02;;;;;;;29.77;25.75;;;;;;;5.88;88.14;99573.72;5071192;27;103807;-66
2021/12/20 10:39:35;;;;;;;32.47;27.88;;;;;;;5.58;89.52;99572.28;5071741;27;103308;-66
2021/12/20 10:42:17;;;;;;;29.60;26.40;;;;;;;6.12;88.40;99567.50;5065935;27;103460;-66
2021/12/20 10:44:45;;;;;;;30.02;25.45;;;;;;;6.49;86.63;99566.81;5044505;27;102977;-66
2021/12/20 10:47:25;;;;;;;27.25;24.35;;;;;;;6.56;85.64;99562.19;5047729;27;104001;-66
2021/12/20 10:49:53;;;;;;;28.67;25.23;;;;;;;6.00;87.32;99573.25;5074780;27;103417;-66
2021/12/20 10:52:28;;;;;;;25.90;23.00;;;;;;;6.87;84.35;99557.31;5065605;27;103043;-66
2021/12/20 10:54:56;;;;;;;25.33;22.33;;;;;;;7.32;80.68;99557.91;5065161;27;103306;-66
2021/12/20 10:57:28;;;;;;;23.27;20.87;;;;;;;7.36;80.80;99564.69;5070591;27;102967;-66
2021/12/20 11:00:15;;;;;;;23.80;21.30;;;;;;;7.34;80.16;99556.03;5045080;27;104409;-67
2021/12/20 11:05:58;;;;;;;24.58;21.10;;;;;;;6.00;83.75;99564.53;5069680;27;102890;-67
2021/12/20 11:11:14;;;;;;;24.63;22.00;;;;;;;5.90;84.47;99561.41;5069964;27;103306;-67
2021/12/20 11:13:43;;;;;;;27.30;23.80;;;;;;;5.83;85.36;99554.69;5049713;27;103611;-67
2021/12/20 11:16:27;;;;;;;26.17;23.08;;;;;;;5.99;85.33;99566.28;5050240;27;102633;-67
2021/12/20 11:19:17;;;;;;;24.00;20.88;;;;;;;5.39;85.69;99558.16;5069767;27;102692;-66
2021/12/20 11:21:57;;;;;;;21.35;19.13;;;;;;;6.08;84.66;99559.81;5046150;27;103251;-67
2021/12/20 11:24:28;;;;;;;22.08;19.63;;;;;;;5.95;84.97;99559.44;4987461;27;103226;-67
2021/12/20 11:26:58;;;;;;;22.83;19.15;;;;;;;5.38;85.58;99562.56;4984676;28;103172;-67
2021/12/20 11:29:28;;;;;;;21.75;18.08;;;;;;;5.03;86.31;99565.59;4982621;28;102701;-67
2021/12/20 11:31:57;;;;;;;22.98;19.17;;;;;;;5.44;84.63;99556.22;4983654;28;103308;-67
2021/12/20 11:34:28;;;;;;;21.38;19.08;;;;;;;5.35;84.95;99556.56;4982691;28;103293;-67
2021/12/20 11:36:57;;;;;;;21.30;18.58;;;;;;;5.19;85.40;99554.50;4980545;28;102538;-67
2021/12/20 11:39:26;;;;;;;18.85;16.75;;;;;;;5.05;84.57;99546.31;4980040;28;103973;-67
2021/12/20 11:41:54;;;;;;;19.58;17.27;;;;;;;5.22;83.60;99546.53;4981174;28;103301;-67
2021/12/20 11:44:27;;;;;;;20.13;16.80;;;;;;;5.75;81.38;99541.84;4979515;28;103071;-67
2021/12/20 11:47:08;;;;;;;19.97;17.33;;;;;;;5.55;81.52;99548.81;4981625;28;102927;-67
2021/12/20 11:49:37;;;;;;;19.65;16.77;;;;;;;5.57;81.15;99547.81;4985110;28;102677;-67
2021/12/20 11:52:15;;;;;;;19.33;17.08;;;;;;;5.62;80.39;99545.00;4980244;28;103324;-67